createdAt,value
2023-05-07T00:01:49.950Z,67.60
2023-05-07T00:04:29.704Z,67.80
2023-05-07T00:07:16.935Z,67.80
2023-05-07T00:09:56.750Z,67.90
2023-05-07T00:12:36.948Z,68.10
2023-05-07T00:15:23.741Z,68.20
2023-05-07T00:18:10.704Z,68.40
2023-05-07T00:20:50.991Z,68.40
2023-05-07T00:23:37.686Z,68.60
2023-05-07T00:26:17.794Z,68.90
2023-05-07T00:29:05.706Z,69.10
2023-05-07T00:31:45.868Z,69.30
2023-05-07T00:34:32.714Z,69.10
2023-05-07T00:37:13.231Z,69.20
2023-05-07T00:39:59.711Z,69.20
2023-05-07T00:42:39.834Z,69.40
2023-05-07T00:45:26.716Z,69.20
2023-05-07T00:48:21.218Z,69.40
2023-05-07T00:51:07.827Z,69.40
2023-05-07T00:53:47.873Z,69.40
2023-05-07T00:56:34.732Z,69.30
2023-05-07T00:59:14.865Z,69.60
2023-05-07T01:02:01.778Z,69.60
2023-05-07T01:04:41.914Z,69.20
2023-05-07T01:07:28.768Z,69.30
2023-05-07T01:10:10.121Z,69.30
2023-05-07T01:12:57.787Z,69.00
2023-05-07T01:15:37.982Z,69.10
2023-05-07T01:18:24.768Z,69.00
2023-05-07T01:21:13.821Z,68.90
2023-05-07T01:24:01.861Z,68.80
2023-05-07T01:26:41.752Z,69.00
2023-05-07T01:29:23.999Z,69.00
2023-05-07T01:32:12.743Z,69.20
2023-05-07T01:35:00.894Z,69.40
2023-05-07T01:37:40.833Z,69.40
2023-05-07T01:40:28.054Z,69.50
2023-05-07T01:43:10.795Z,69.40
2023-05-07T01:45:51.190Z,69.30
2023-05-07T01:48:38.769Z,69.50
2023-05-07T01:51:26.125Z,69.80
2023-05-07T01:54:06.798Z,70.00
2023-05-07T01:56:53.860Z,69.90
2023-05-07T01:59:34.890Z,70.00
2023-05-07T02:02:21.921Z,70.20
2023-05-07T02:05:04.828Z,70.20
2023-05-07T02:07:53.939Z,70.30
2023-05-07T02:10:35.802Z,70.30
2023-05-07T02:13:25.549Z,70.30
2023-05-07T02:16:05.873Z,70.50
2023-05-07T02:18:53.166Z,70.30
2023-05-07T02:21:32.902Z,70.50
2023-05-07T02:24:26.897Z,70.70
2023-05-07T02:27:13.940Z,70.90
2023-05-07T02:29:53.896Z,71.00
2023-05-07T02:32:41.247Z,70.90
2023-05-07T02:35:21.826Z,70.70
2023-05-07T02:38:11.704Z,70.80
2023-05-07T02:40:51.821Z,70.80
2023-05-07T02:43:39.033Z,70.90
2023-05-07T02:46:19.917Z,71.00
2023-05-07T02:49:20.856Z,71.20
2023-05-07T02:52:07.923Z,71.20
2023-05-07T02:54:49.059Z,70.90
2023-05-07T02:57:35.924Z,70.60
2023-05-07T03:00:19.934Z,70.60
2023-05-07T03:03:20.852Z,70.80
2023-05-07T03:06:01.008Z,70.70
2023-05-07T03:08:47.960Z,70.50
2023-05-07T03:11:28.033Z,70.50
2023-05-07T03:14:14.870Z,70.70
2023-05-07T03:17:01.883Z,71.00
2023-05-07T03:19:49.008Z,71.20
2023-05-07T03:22:28.874Z,71.20
2023-05-07T03:25:16.102Z,71.60
2023-05-07T03:27:55.897Z,70.20
2023-05-07T03:30:52.130Z,70.20
2023-05-07T03:33:31.959Z,69.70
2023-05-07T03:36:19.158Z,70.00
2023-05-07T03:38:59.924Z,69.80
2023-05-07T03:41:45.216Z,69.90
2023-05-07T03:44:31.888Z,69.90
2023-05-07T03:47:34.123Z,69.70
2023-05-07T03:50:30.028Z,69.40
2023-05-07T03:53:17.008Z,69.10
2023-05-07T03:55:57.974Z,68.70
2023-05-07T03:58:48.919Z,68.60
2023-05-07T04:01:29.069Z,68.70
2023-05-07T04:04:15.961Z,68.50
2023-05-07T04:06:56.188Z,68.90
2023-05-07T04:09:43.975Z,69.10
2023-05-07T04:12:24.011Z,69.30
2023-05-07T04:15:12.935Z,69.40
2023-05-07T04:17:53.222Z,69.60
2023-05-07T04:20:41.976Z,69.90
2023-05-07T04:23:23.134Z,69.90
2023-05-07T04:26:11.925Z,69.80
2023-05-07T04:28:53.141Z,69.50
2023-05-07T04:31:44.948Z,69.30
2023-05-07T04:34:26.038Z,69.20
2023-05-07T04:37:15.049Z,69.40
2023-05-07T04:39:55.031Z,69.20
2023-05-07T04:42:42.974Z,69.50
2023-05-07T04:45:24.074Z,69.00
2023-05-07T04:48:10.975Z,68.90
2023-05-07T04:50:59.047Z,68.60
2023-05-07T04:53:38.933Z,68.90
2023-05-07T04:56:33.046Z,68.70
2023-05-07T04:59:20.042Z,68.20
2023-05-07T05:02:01.051Z,68.00
2023-05-07T05:04:41.273Z,67.90
2023-05-07T05:07:29.026Z,67.50
2023-05-07T05:10:17.367Z,67.10
2023-05-07T05:12:57.978Z,66.90
2023-05-07T05:15:46.750Z,66.70
2023-05-07T05:21:15.238Z,65.40
2023-05-07T05:23:59.087Z,65.40
2023-05-07T05:26:39.378Z,65.60
2023-05-07T05:29:25.999Z,64.70
2023-05-07T05:32:13.108Z,64.60
2023-05-07T05:34:54.013Z,64.20
2023-05-07T05:37:41.110Z,64.20
2023-05-07T05:40:21.047Z,63.90
2023-05-07T05:43:08.200Z,63.50
2023-05-07T05:45:49.003Z,63.10
2023-05-07T05:48:44.026Z,62.80
2023-05-07T05:51:31.039Z,62.10
2023-05-07T05:54:19.075Z,61.80
2023-05-07T05:57:07.353Z,61.50
2023-05-07T05:59:47.048Z,61.20
2023-05-07T06:02:34.236Z,60.30
2023-05-07T06:05:15.229Z,58.70
2023-05-07T06:08:06.287Z,59.20
2023-05-07T06:10:47.149Z,59.30
2023-05-07T06:13:34.152Z,59.40
2023-05-07T06:16:14.073Z,57.80
2023-05-07T06:19:02.221Z,57.60
2023-05-07T06:21:42.102Z,57.70
2023-05-07T06:24:22.315Z,57.20
2023-05-07T06:27:09.063Z,56.80
2023-05-07T06:29:49.555Z,55.90
2023-05-07T06:32:36.114Z,55.90
2023-05-07T06:35:17.327Z,55.30
2023-05-07T06:38:04.127Z,54.70
2023-05-07T06:40:51.386Z,55.00
2023-05-07T06:43:31.074Z,55.20
2023-05-07T06:46:40.247Z,54.70
2023-05-07T06:49:35.358Z,54.60
2023-05-07T06:52:22.174Z,53.80
2023-05-07T06:55:03.283Z,52.70
2023-05-07T06:57:50.067Z,52.50
2023-05-07T07:00:32.242Z,52.50
2023-05-07T07:03:19.132Z,51.10
2023-05-07T07:06:03.644Z,47.80
2023-05-07T07:08:51.104Z,47.50
2023-05-07T07:11:32.272Z,46.50
2023-05-07T07:14:21.087Z,46.20
2023-05-07T07:17:02.341Z,46.40
2023-05-07T07:19:49.178Z,45.60
2023-05-07T07:22:37.183Z,45.00
2023-05-07T07:25:24.505Z,44.30
2023-05-07T07:28:05.118Z,43.50
2023-05-07T07:30:53.280Z,42.40
2023-05-07T07:33:33.238Z,40.90
2023-05-07T07:36:21.033Z,41.40
2023-05-07T07:39:02.217Z,41.40
2023-05-07T07:41:50.364Z,40.30
2023-05-07T07:44:31.217Z,40.10
2023-05-07T07:47:22.354Z,40.00
2023-05-07T07:50:03.276Z,39.40
2023-05-07T07:52:50.422Z,38.40
2023-05-07T07:55:31.183Z,36.70
2023-05-07T07:58:18.360Z,34.70
2023-05-07T08:01:00.250Z,33.80
2023-05-07T08:03:47.498Z,32.60
2023-05-07T08:06:29.178Z,31.90
2023-05-07T08:09:09.524Z,31.10
2023-05-07T08:11:56.297Z,30.40
2023-05-07T08:14:39.659Z,29.90
2023-05-07T08:17:26.331Z,29.40
2023-05-07T08:20:13.684Z,29.70
2023-05-07T08:22:53.237Z,30.00
2023-05-07T08:25:41.460Z,30.10
2023-05-07T08:28:23.192Z,30.30
2023-05-07T08:31:10.542Z,30.80
2023-05-07T08:33:52.264Z,30.60
2023-05-07T08:36:46.218Z,30.60
2023-05-07T08:39:36.345Z,30.50
2023-05-07T08:42:24.221Z,29.90
2023-05-07T08:45:13.395Z,30.60
2023-05-07T08:47:59.280Z,32.00
2023-05-07T08:50:49.462Z,32.30
2023-05-07T08:53:29.312Z,33.30
2023-05-07T08:56:16.670Z,32.70
2023-05-07T08:58:59.236Z,31.80
2023-05-07T09:01:46.436Z,31.80
2023-05-07T09:04:27.252Z,31.40
2023-05-07T09:07:15.419Z,30.40
2023-05-07T09:09:56.254Z,30.80
2023-05-07T09:12:43.542Z,30.60
2023-05-07T09:15:25.299Z,30.10
2023-05-07T09:18:13.380Z,29.10
2023-05-07T09:20:56.348Z,29.50
2023-05-07T09:23:43.507Z,29.10
2023-05-07T09:26:24.359Z,28.70
2023-05-07T09:29:12.402Z,28.30
2023-05-07T09:31:53.335Z,28.50
2023-05-07T09:34:40.320Z,28.40
2023-05-07T09:37:23.396Z,28.50
2023-05-07T09:40:10.295Z,27.80
2023-05-07T09:42:50.884Z,27.20
2023-05-07T09:45:38.428Z,26.80
2023-05-07T09:48:20.553Z,26.20
2023-05-07T09:51:10.316Z,25.80
2023-05-07T09:53:51.385Z,25.40
2023-05-07T09:56:39.320Z,25.00
2023-05-07T09:59:20.458Z,24.80
2023-05-07T10:02:09.345Z,25.10
2023-05-07T10:04:56.972Z,25.30
2023-05-07T10:07:45.343Z,25.70
2023-05-07T10:10:33.455Z,25.30
2023-05-07T10:13:17.772Z,25.40
2023-05-07T10:16:08.446Z,25.80
2023-05-07T10:18:55.010Z,25.80
2023-05-07T10:21:42.418Z,25.50
2023-05-07T10:24:35.075Z,25.80
2023-05-07T10:27:22.385Z,25.90
2023-05-07T10:30:19.478Z,26.40
2023-05-07T10:33:02.384Z,26.40
2023-05-07T10:35:59.398Z,26.30
2023-05-07T10:38:41.872Z,26.30
2023-05-07T10:41:31.385Z,26.30
2023-05-07T10:44:18.477Z,26.50
2023-05-07T10:47:16.456Z,27.00
2023-05-07T10:50:19.463Z,26.90
2023-05-07T10:53:24.422Z,26.90
2023-05-07T10:56:34.605Z,26.70
2023-05-07T10:59:31.395Z,26.80
2023-05-07T11:02:29.665Z,27.10
2023-05-07T11:05:24.815Z,27.30
2023-05-07T11:08:23.422Z,27.40
2023-05-07T11:11:11.992Z,27.20
2023-05-07T11:14:04.635Z,27.50
2023-05-07T11:17:02.438Z,27.40
2023-05-07T11:20:05.500Z,27.10
2023-05-07T11:22:51.735Z,27.10
2023-05-07T11:26:01.531Z,26.80
2023-05-07T11:28:48.529Z,26.50
2023-05-07T11:31:32.514Z,27.10
2023-05-07T11:34:13.078Z,26.80
2023-05-07T11:37:02.462Z,26.60
2023-05-07T11:40:10.500Z,26.50
2023-05-07T11:45:38.480Z,26.60
2023-05-07T11:48:19.541Z,27.50
2023-05-07T11:51:06.524Z,27.60
2023-05-07T11:53:50.573Z,27.40
2023-05-07T11:56:37.468Z,27.80
2023-05-07T11:59:17.590Z,27.90
2023-05-07T12:02:05.591Z,27.90
2023-05-07T12:04:45.984Z,28.30
2023-05-07T12:07:32.517Z,28.50
2023-05-07T12:10:15.920Z,28.40
2023-05-07T12:13:02.633Z,28.40
2023-05-07T12:15:42.647Z,28.90
2023-05-07T12:18:29.532Z,29.10
2023-05-07T12:21:09.782Z,29.00
2023-05-07T12:23:56.512Z,29.10
2023-05-07T12:26:36.967Z,29.10
2023-05-07T12:29:23.538Z,29.10
2023-05-07T12:32:05.755Z,29.50
2023-05-07T12:34:53.537Z,30.10
2023-05-07T12:37:36.729Z,31.40
2023-05-07T12:40:23.601Z,31.70
2023-05-07T12:43:03.625Z,32.30
2023-05-07T12:45:50.633Z,32.90
2023-05-07T12:48:30.949Z,33.30
2023-05-07T12:51:18.585Z,34.20
2023-05-07T12:54:03.823Z,34.20
2023-05-07T12:56:50.548Z,34.40
2023-05-07T12:59:38.770Z,34.40
2023-05-07T13:02:25.594Z,34.90
2023-05-07T13:05:05.671Z,36.20
2023-05-07T13:08:00.591Z,37.00
2023-05-07T13:10:40.704Z,37.70
2023-05-07T13:13:28.935Z,38.30
2023-05-07T13:16:12.124Z,38.50
2023-05-07T13:18:59.591Z,39.10
2023-05-07T13:21:46.664Z,39.90
2023-05-07T13:24:33.781Z,40.80
2023-05-07T13:27:13.580Z,41.00
2023-05-07T13:29:53.858Z,41.30
2023-05-07T13:32:40.645Z,40.60
2023-05-07T13:35:27.761Z,41.10
2023-05-07T13:38:07.590Z,41.20
2023-05-07T13:40:54.740Z,41.70
2023-05-07T13:43:34.640Z,42.40
2023-05-07T13:46:21.742Z,41.40
2023-05-07T13:49:02.678Z,41.50
2023-05-07T13:51:49.724Z,40.50
2023-05-07T13:54:29.612Z,40.70
2023-05-07T13:57:16.794Z,40.80
2023-05-07T13:59:56.611Z,41.40
2023-05-07T14:02:32.905Z,41.70
2023-05-07T14:04:59.991Z,41.90
2023-05-07T14:07:27.239Z,42.20
2023-05-07T14:09:54.200Z,42.50
2023-05-07T14:12:21.563Z,42.40
2023-05-07T14:14:48.620Z,42.60
2023-05-07T14:17:16.141Z,42.40
2023-05-07T14:19:44.182Z,42.90
2023-05-07T14:22:11.637Z,42.90
2023-05-07T14:24:40.566Z,42.40
2023-05-07T14:27:07.867Z,42.20
2023-05-07T14:29:36.596Z,42.80
2023-05-07T14:32:04.339Z,42.90
2023-05-07T14:34:32.766Z,42.50
2023-05-07T14:37:00.866Z,42.60
2023-05-07T14:39:28.161Z,42.90
2023-05-07T14:41:57.080Z,43.20
2023-05-07T14:44:24.043Z,43.40
2023-05-07T14:46:52.359Z,43.20
2023-05-07T14:49:19.246Z,43.40
2023-05-07T14:51:46.828Z,43.30
2023-05-07T14:54:14.651Z,43.90
2023-05-07T14:56:42.086Z,44.60
2023-05-07T14:59:09.674Z,44.60
2023-05-07T15:01:37.529Z,44.30
2023-05-07T15:04:05.402Z,44.60
2023-05-07T15:06:33.023Z,44.70
2023-05-07T15:09:02.717Z,44.50
2023-05-07T15:11:29.921Z,44.70
2023-05-07T15:13:57.013Z,44.90
2023-05-07T15:16:24.394Z,45.30
2023-05-07T15:18:51.329Z,45.40
2023-05-07T15:21:18.728Z,45.30
2023-05-07T15:23:46.033Z,44.90
2023-05-07T15:26:13.194Z,45.30
2023-05-07T15:28:40.649Z,45.80
2023-05-07T15:31:08.213Z,46.10
2023-05-07T15:33:35.410Z,46.20
2023-05-07T15:36:04.222Z,46.70
2023-05-07T15:38:31.424Z,46.90
2023-05-07T15:40:58.781Z,47.20
2023-05-07T15:43:26.497Z,47.30
2023-05-07T15:45:54.478Z,47.20
2023-05-07T15:48:21.718Z,47.30
2023-05-07T15:50:48.960Z,47.60
2023-05-07T15:53:16.003Z,46.90
2023-05-07T15:55:44.463Z,47.20
2023-05-07T15:58:11.500Z,47.30
2023-05-07T16:00:40.946Z,47.90
2023-05-07T16:03:08.890Z,47.30
2023-05-07T16:05:37.635Z,47.40
2023-05-07T16:08:05.452Z,47.40
2023-05-07T16:10:32.748Z,47.80
2023-05-07T16:13:00.172Z,48.30
2023-05-07T16:15:27.432Z,49.00
2023-05-07T16:17:58.138Z,49.00
2023-05-07T16:20:29.774Z,49.00
2023-05-07T16:22:58.321Z,49.60
2023-05-07T16:25:25.374Z,49.40
2023-05-07T16:27:53.845Z,49.60
2023-05-07T16:30:20.882Z,49.90
2023-05-07T16:32:48.339Z,50.20
2023-05-07T16:35:15.482Z,50.50
2023-05-07T16:37:42.827Z,50.60
2023-05-07T16:40:09.930Z,50.30
2023-05-07T16:42:37.804Z,50.00
2023-05-07T16:45:05.408Z,50.10
2023-05-07T16:47:32.734Z,49.60
2023-05-07T16:50:00.796Z,48.70
2023-05-07T16:52:29.937Z,48.80
2023-05-07T16:55:00.852Z,49.30
2023-05-07T16:57:29.429Z,49.20
2023-05-07T16:59:57.251Z,49.40
2023-05-07T17:02:24.788Z,49.50
2023-05-07T17:04:51.942Z,49.60
2023-05-07T17:07:19.328Z,49.70
2023-05-07T17:09:46.290Z,49.60
2023-05-07T17:12:13.484Z,49.20
2023-05-07T17:14:40.541Z,49.50
2023-05-07T17:17:07.915Z,49.40
2023-05-07T17:19:37.982Z,49.60
2023-05-07T17:22:07.102Z,49.70
2023-05-07T17:24:34.233Z,49.80
2023-05-07T17:27:01.650Z,49.90
2023-05-07T17:29:29.890Z,50.10
2023-05-07T17:31:57.211Z,50.40
2023-05-07T17:34:24.356Z,50.70
2023-05-07T17:36:52.762Z,50.90
2023-05-07T17:39:19.815Z,51.10
2023-05-07T17:41:47.972Z,51.20
2023-05-07T17:44:15.043Z,51.40
2023-05-07T17:46:42.236Z,51.60
2023-05-07T17:49:09.394Z,51.30
2023-05-07T17:51:52.539Z,51.30
2023-05-07T17:54:21.733Z,51.30
2023-05-07T17:56:49.035Z,51.20
2023-05-07T17:59:16.216Z,51.10
2023-05-07T18:01:44.401Z,51.30
2023-05-07T18:04:11.650Z,51.50
2023-05-07T18:06:39.915Z,51.60
2023-05-07T18:09:07.262Z,51.50
2023-05-07T18:11:34.876Z,51.60
2023-05-07T18:14:02.129Z,51.70
2023-05-07T18:16:29.684Z,51.80
2023-05-07T18:18:56.885Z,51.90
2023-05-07T18:21:24.204Z,52.00
2023-05-07T18:23:51.691Z,52.10
2023-05-07T18:26:19.036Z,52.20
2023-05-07T18:28:46.593Z,52.40
2023-05-07T18:31:14.081Z,52.60
2023-05-07T18:33:41.232Z,52.80
2023-05-07T18:36:08.781Z,52.90
2023-05-07T18:38:35.801Z,53.00
2023-05-07T18:41:03.401Z,53.20
2023-05-07T18:43:30.477Z,53.50
2023-05-07T18:45:58.341Z,53.60
2023-05-07T18:48:27.713Z,53.80
2023-05-07T18:50:54.909Z,54.00
2023-05-07T18:53:22.074Z,54.00
2023-05-07T18:55:53.266Z,54.00
2023-05-07T18:58:20.726Z,54.00
2023-05-07T19:00:48.009Z,54.10
2023-05-07T19:03:16.058Z,54.20
2023-05-07T19:05:43.765Z,54.30
2023-05-07T19:08:11.433Z,54.30
2023-05-07T19:10:38.458Z,54.30
2023-05-07T19:13:05.683Z,54.50
2023-05-07T19:15:32.710Z,54.40
2023-05-07T19:17:59.989Z,54.50
2023-05-07T19:20:27.119Z,54.60
2023-05-07T19:22:54.320Z,54.60
2023-05-07T19:25:21.370Z,54.80
2023-05-07T19:27:48.530Z,54.90
2023-05-07T19:30:15.542Z,54.90
2023-05-07T19:32:43.785Z,55.10
2023-05-07T19:35:12.246Z,55.30
2023-05-07T19:37:39.568Z,55.40
2023-05-07T19:40:07.153Z,55.60
2023-05-07T19:42:34.223Z,55.60
2023-05-07T19:45:01.264Z,55.90
2023-05-07T19:47:28.483Z,55.80
2023-05-07T19:49:55.808Z,56.00
2023-05-07T19:52:22.816Z,56.10
2023-05-07T19:54:49.753Z,56.20
2023-05-07T19:57:17.907Z,56.30
2023-05-07T19:59:46.746Z,56.40
2023-05-07T20:02:46.819Z,56.50
2023-05-07T20:05:14.109Z,56.70
2023-05-07T20:07:41.341Z,56.70
2023-05-07T20:10:08.548Z,56.90
2023-05-07T20:12:35.658Z,57.00
2023-05-07T20:15:02.955Z,57.10
2023-05-07T20:17:30.033Z,57.30
2023-05-07T20:19:57.021Z,57.40
2023-05-07T20:22:24.337Z,57.40
2023-05-07T20:24:51.332Z,57.50
2023-05-07T20:27:22.305Z,57.50
2023-05-07T20:29:49.386Z,57.50
2023-05-07T20:32:17.030Z,57.50
2023-05-07T20:34:47.170Z,57.70
2023-05-07T20:37:15.826Z,57.80
2023-05-07T20:39:43.381Z,57.90
2023-05-07T20:42:10.753Z,57.90
2023-05-07T20:44:37.843Z,58.00
2023-05-07T20:47:05.056Z,58.10
2023-05-07T20:49:32.019Z,58.20
2023-05-07T20:52:00.313Z,58.30
2023-05-07T20:54:28.498Z,58.60
2023-05-07T20:56:55.787Z,59.00
2023-05-07T20:59:22.815Z,59.40
2023-05-07T21:01:50.136Z,60.10
2023-05-07T21:04:17.483Z,60.80
2023-05-07T21:06:44.907Z,61.50
2023-05-07T21:09:12.004Z,62.30
2023-05-07T21:11:39.249Z,62.90
2023-05-07T21:14:06.166Z,63.30
2023-05-07T21:16:33.290Z,63.60
2023-05-07T21:19:00.406Z,63.70
2023-05-07T21:21:28.113Z,64.00
2023-05-07T21:23:55.529Z,64.80
2023-05-07T21:26:22.815Z,65.20
2023-05-07T21:28:49.985Z,65.00
2023-05-07T21:31:17.082Z,64.70
2023-05-07T21:33:44.462Z,64.40
2023-05-07T21:36:11.767Z,64.20
2023-05-07T21:38:38.904Z,64.00
2023-05-07T21:41:06.354Z,63.70
2023-05-07T21:43:33.685Z,63.20
2023-05-07T21:46:00.783Z,62.80
2023-05-07T21:48:28.015Z,62.50
2023-05-07T21:51:05.335Z,61.70
2023-05-07T21:53:32.703Z,61.70
2023-05-07T21:56:03.144Z,61.90
2023-05-07T21:58:31.218Z,62.10
2023-05-07T22:00:58.556Z,62.20
2023-05-07T22:03:25.834Z,62.10
2023-05-07T22:05:53.076Z,62.20
2023-05-07T22:08:20.338Z,62.10
2023-05-07T22:10:47.456Z,61.90
2023-05-07T22:13:14.644Z,61.90
2023-05-07T22:15:49.663Z,61.80
2023-05-07T22:18:23.921Z,61.90
2023-05-07T22:20:51.830Z,62.10
2023-05-07T22:23:19.526Z,62.20
2023-05-07T22:25:46.707Z,62.40
2023-05-07T22:28:13.982Z,62.20
2023-05-07T22:30:41.147Z,62.30
2023-05-07T22:33:08.652Z,62.50
2023-05-07T22:35:35.683Z,62.70
2023-05-07T22:38:02.785Z,62.80
2023-05-07T22:40:29.876Z,62.80
2023-05-07T22:42:57.005Z,61.80
2023-05-07T22:45:23.952Z,62.90
2023-05-07T22:47:51.013Z,62.20
2023-05-07T22:50:18.336Z,62.00
2023-05-07T22:52:45.591Z,61.90
2023-05-07T22:55:12.616Z,62.20
2023-05-07T22:57:39.872Z,62.60
2023-05-07T23:00:07.343Z,63.30
2023-05-07T23:02:34.666Z,64.20
2023-05-07T23:05:01.939Z,65.40
2023-05-07T23:07:29.353Z,66.10
2023-05-07T23:09:56.341Z,66.60
2023-05-07T23:12:23.398Z,68.30
2023-05-07T23:14:50.400Z,70.20
2023-05-07T23:17:17.410Z,71.00
2023-05-07T23:19:44.434Z,72.90
2023-05-07T23:22:12.387Z,73.30
2023-05-07T23:24:39.608Z,72.90
2023-05-07T23:27:07.441Z,73.30
2023-05-07T23:29:34.885Z,73.80
2023-05-07T23:32:02.028Z,74.50
2023-05-07T23:34:29.166Z,75.20
2023-05-07T23:36:56.107Z,75.10
2023-05-07T23:39:23.317Z,75.30
2023-05-07T23:41:50.417Z,75.40
2023-05-07T23:44:17.642Z,75.80
2023-05-07T23:46:44.861Z,75.60
2023-05-07T23:49:11.939Z,75.50
2023-05-07T23:51:38.983Z,75.20
2023-05-07T23:54:06.800Z,74.70
2023-05-07T23:56:34.174Z,73.30
2023-05-07T23:59:01.465Z,73.10
